createdAt,value
2023-05-11T00:01:48.609Z,16.90
2023-05-11T00:04:15.622Z,16.90
2023-05-11T00:06:42.639Z,16.90
2023-05-11T00:09:11.191Z,16.80
2023-05-11T00:11:38.444Z,16.80
2023-05-11T00:14:05.538Z,16.80
2023-05-11T00:16:32.345Z,16.80
2023-05-11T00:18:59.328Z,16.70
2023-05-11T00:21:26.440Z,16.80
2023-05-11T00:23:53.203Z,16.80
2023-05-11T00:26:19.976Z,16.90
2023-05-11T00:28:46.696Z,16.90
2023-05-11T00:31:13.516Z,16.90
2023-05-11T00:33:40.354Z,16.90
2023-05-11T00:36:08.206Z,16.80
2023-05-11T00:38:36.611Z,16.80
2023-05-11T00:41:03.456Z,16.80
2023-05-11T00:43:30.437Z,16.80
2023-05-11T00:45:57.319Z,16.80
2023-05-11T00:48:24.286Z,16.80
2023-05-11T00:50:51.255Z,16.80
2023-05-11T00:53:18.058Z,16.90
2023-05-11T00:55:45.243Z,16.90
2023-05-11T00:58:12.268Z,16.80
2023-05-11T01:00:39.625Z,16.90
2023-05-11T01:03:07.378Z,16.80
2023-05-11T01:05:57.377Z,16.80
2023-05-11T01:09:06.498Z,16.80
2023-05-11T01:12:00.414Z,16.70
2023-05-11T01:14:45.244Z,16.70
2023-05-11T01:17:27.461Z,16.70
2023-05-11T01:20:07.367Z,16.60
2023-05-11T01:22:40.906Z,16.60
2023-05-11T01:25:27.335Z,16.60
2023-05-11T01:28:26.643Z,16.60
2023-05-11T01:31:04.336Z,16.60
2023-05-11T01:33:37.516Z,16.60
2023-05-11T01:36:08.974Z,16.60
2023-05-11T01:38:41.730Z,16.60
2023-05-11T01:41:13.438Z,16.70
2023-05-11T01:43:43.116Z,16.60
2023-05-11T01:46:12.848Z,16.60
2023-05-11T01:48:44.572Z,16.80
2023-05-11T01:51:11.983Z,16.70
2023-05-11T01:53:41.166Z,16.70
2023-05-11T01:56:09.298Z,16.50
2023-05-11T01:58:38.865Z,16.70
2023-05-11T02:01:06.800Z,16.50
2023-05-11T02:03:36.941Z,16.50
2023-05-11T02:06:06.587Z,16.50
2023-05-11T02:08:34.345Z,16.50
2023-05-11T02:11:02.999Z,16.40
2023-05-11T02:13:31.389Z,16.40
2023-05-11T02:15:59.667Z,16.50
2023-05-11T02:18:28.477Z,16.50
2023-05-11T02:20:56.586Z,16.40
2023-05-11T02:23:25.077Z,16.40
2023-05-11T02:25:52.764Z,16.40
2023-05-11T02:28:20.361Z,16.40
2023-05-11T02:30:50.031Z,16.40
2023-05-11T02:33:34.353Z,16.40
2023-05-11T02:36:02.716Z,16.40
2023-05-11T02:38:34.332Z,16.40
2023-05-11T02:41:05.104Z,16.40
2023-05-11T02:43:35.779Z,16.40
2023-05-11T02:46:06.460Z,16.40
2023-05-11T02:48:41.309Z,16.30
2023-05-11T02:51:10.212Z,16.30
2023-05-11T02:53:40.032Z,16.50
2023-05-11T02:56:08.429Z,16.40
2023-05-11T02:58:35.355Z,16.40
2023-05-11T03:01:02.838Z,16.40
2023-05-11T03:03:29.949Z,16.40
2023-05-11T03:05:56.838Z,16.50
2023-05-11T03:08:23.662Z,16.50
2023-05-11T03:10:51.496Z,16.30
2023-05-11T03:13:20.212Z,16.30
2023-05-11T03:15:47.896Z,16.30
2023-05-11T03:18:15.806Z,16.20
2023-05-11T03:20:44.516Z,16.30
2023-05-11T03:23:13.411Z,16.20
2023-05-11T03:25:43.055Z,16.10
2023-05-11T03:28:11.135Z,16.20
2023-05-11T03:30:39.648Z,16.10
2023-05-11T03:33:06.745Z,16.20
2023-05-11T03:35:35.100Z,16.30
2023-05-11T03:38:02.873Z,16.40
2023-05-11T03:40:31.630Z,16.40
2023-05-11T03:43:00.233Z,16.30
2023-05-11T03:45:28.840Z,16.30
2023-05-11T03:47:56.993Z,16.30
2023-05-11T03:50:24.130Z,16.30
2023-05-11T03:52:52.216Z,16.30
2023-05-11T03:55:20.223Z,16.30
2023-05-11T03:57:47.644Z,16.30
2023-05-11T04:00:14.915Z,16.20
2023-05-11T04:02:42.373Z,16.20
2023-05-11T04:05:15.690Z,16.30
2023-05-11T04:07:42.494Z,16.20
2023-05-11T04:10:09.556Z,16.30
2023-05-11T04:12:36.391Z,16.30
2023-05-11T04:15:04.582Z,16.20
2023-05-11T04:17:31.394Z,16.30
2023-05-11T04:19:58.288Z,16.30
2023-05-11T04:22:25.111Z,16.30
2023-05-11T04:24:51.937Z,16.30
2023-05-11T04:27:18.863Z,16.40
2023-05-11T04:29:45.835Z,16.50
2023-05-11T04:32:13.237Z,16.40
2023-05-11T04:34:40.642Z,16.40
2023-05-11T04:37:07.664Z,16.40
2023-05-11T04:39:35.043Z,16.40
2023-05-11T04:42:02.014Z,16.50
2023-05-11T04:44:28.838Z,16.50
2023-05-11T04:46:56.759Z,16.40
2023-05-11T04:49:23.829Z,16.30
2023-05-11T04:51:50.685Z,16.30
2023-05-11T04:54:17.853Z,16.30
2023-05-11T04:56:44.717Z,16.30
2023-05-11T04:59:11.507Z,16.30
2023-05-11T05:01:38.332Z,16.30
2023-05-11T05:04:05.496Z,16.30
2023-05-11T05:06:32.826Z,16.30
2023-05-11T05:08:59.547Z,16.30
2023-05-11T05:11:26.579Z,16.20
2023-05-11T05:13:55.014Z,16.20
2023-05-11T05:16:22.176Z,16.20
2023-05-11T05:18:49.205Z,16.20
2023-05-11T05:21:16.028Z,16.30
2023-05-11T05:23:42.958Z,16.20
2023-05-11T05:26:09.786Z,16.20
2023-05-11T05:28:36.510Z,16.10
2023-05-11T05:31:03.300Z,16.20
2023-05-11T05:33:30.251Z,16.10
2023-05-11T05:35:57.118Z,16.20
2023-05-11T05:38:23.951Z,16.30
2023-05-11T05:40:50.857Z,16.30
2023-05-11T05:43:17.610Z,16.30
2023-05-11T05:45:44.619Z,16.20
2023-05-11T05:48:11.397Z,16.30
2023-05-11T05:50:38.505Z,16.30
2023-05-11T05:53:05.413Z,16.20
2023-05-11T05:55:32.206Z,16.20
2023-05-11T05:57:59.033Z,16.30
2023-05-11T06:00:25.850Z,16.40
2023-05-11T06:02:52.831Z,16.40
2023-05-11T06:05:19.960Z,16.40
2023-05-11T06:07:54.296Z,16.30
2023-05-11T06:10:29.678Z,16.40
2023-05-11T06:12:56.458Z,16.40
2023-05-11T06:15:23.308Z,16.50
2023-05-11T06:17:50.180Z,16.40
2023-05-11T06:20:17.265Z,16.40
2023-05-11T06:22:44.298Z,16.30
2023-05-11T06:25:11.640Z,16.40
2023-05-11T06:27:38.632Z,16.40
2023-05-11T06:30:06.876Z,16.40
2023-05-11T06:32:34.380Z,16.30
2023-05-11T06:35:01.488Z,16.30
2023-05-11T06:37:31.258Z,16.30
2023-05-11T06:39:59.113Z,16.30
2023-05-11T06:42:26.032Z,16.40
2023-05-11T06:44:52.904Z,16.40
2023-05-11T06:47:19.792Z,16.40
2023-05-11T06:49:46.549Z,16.40
2023-05-11T06:52:13.584Z,16.40
2023-05-11T06:54:40.867Z,16.30
2023-05-11T06:57:07.930Z,16.30
2023-05-11T06:59:35.013Z,16.40
2023-05-11T07:02:01.905Z,16.40
2023-05-11T07:04:29.860Z,16.30
2023-05-11T07:06:56.790Z,16.30
2023-05-11T07:09:23.680Z,16.30
2023-05-11T07:11:52.191Z,16.40
2023-05-11T07:14:19.633Z,16.50
2023-05-11T07:16:46.805Z,16.40
2023-05-11T07:19:13.915Z,16.50
2023-05-11T07:21:40.715Z,16.50
2023-05-11T07:24:07.679Z,16.50
2023-05-11T07:26:34.468Z,16.50
2023-05-11T07:29:01.324Z,16.40
2023-05-11T07:31:30.133Z,16.50
2023-05-11T07:33:57.152Z,16.50
2023-05-11T07:36:23.989Z,16.40
2023-05-11T07:38:51.039Z,16.40
2023-05-11T07:41:19.161Z,16.50
2023-05-11T07:43:46.199Z,16.40
2023-05-11T07:46:13.503Z,16.50
2023-05-11T07:48:40.422Z,16.50
2023-05-11T07:51:07.717Z,16.70
2023-05-11T07:53:35.170Z,16.60
2023-05-11T07:56:03.802Z,16.60
2023-05-11T07:58:30.952Z,16.60
2023-05-11T08:00:57.901Z,16.60
2023-05-11T08:03:25.080Z,16.70
2023-05-11T08:05:52.029Z,16.70
2023-05-11T08:08:19.239Z,16.70
2023-05-11T08:10:46.245Z,16.60
2023-05-11T08:13:13.129Z,16.70
2023-05-11T08:15:40.046Z,16.60
2023-05-11T08:18:07.781Z,16.60
2023-05-11T08:20:34.806Z,16.70
2023-05-11T08:23:01.709Z,16.70
2023-05-11T08:25:28.522Z,16.70
2023-05-11T08:27:55.427Z,16.80
2023-05-11T08:30:22.242Z,16.80
2023-05-11T08:32:57.959Z,16.80
2023-05-11T08:35:26.357Z,16.80
2023-05-11T08:37:53.146Z,16.80
2023-05-11T08:40:21.741Z,16.80
2023-05-11T08:42:53.215Z,16.80
2023-05-11T08:45:21.602Z,16.80
2023-05-11T08:47:49.219Z,16.80
2023-05-11T08:50:16.342Z,16.80
2023-05-11T08:52:43.592Z,16.80
2023-05-11T08:55:11.216Z,16.90
2023-05-11T08:57:40.749Z,17.00
2023-05-11T09:00:08.405Z,17.00
2023-05-11T09:02:35.921Z,17.00
2023-05-11T09:05:04.501Z,17.00
2023-05-11T09:07:33.529Z,16.90
2023-05-11T09:10:00.406Z,17.00
2023-05-11T09:12:28.502Z,16.90
2023-05-11T09:15:02.018Z,17.00
2023-05-11T09:17:29.616Z,17.10
2023-05-11T09:20:09.219Z,17.00
2023-05-11T09:22:43.801Z,16.90
2023-05-11T09:25:15.569Z,17.00
2023-05-11T09:27:47.179Z,17.10
2023-05-11T09:32:58.315Z,17.20
2023-05-11T09:35:43.076Z,17.20
2023-05-11T09:38:11.967Z,17.20
2023-05-11T09:40:43.520Z,17.20
2023-05-11T09:43:18.989Z,17.20
2023-05-11T09:45:47.752Z,17.20
2023-05-11T09:48:20.681Z,17.30
2023-05-11T09:50:59.567Z,17.30
2023-05-11T09:53:45.453Z,17.30
2023-05-11T09:56:13.112Z,17.30
2023-05-11T09:58:55.040Z,17.30
2023-05-11T10:01:32.910Z,17.20
2023-05-11T10:04:17.713Z,17.20
2023-05-11T10:06:53.524Z,17.30
2023-05-11T10:09:28.562Z,17.30
2023-05-11T10:11:56.421Z,17.30
2023-05-11T10:14:25.113Z,17.20
2023-05-11T10:16:53.089Z,17.20
2023-05-11T10:19:23.214Z,17.10
2023-05-11T10:21:52.383Z,17.10
2023-05-11T10:24:20.612Z,17.10
2023-05-11T10:26:48.663Z,17.10
2023-05-11T10:29:18.540Z,16.90
2023-05-11T10:31:51.203Z,16.90
2023-05-11T10:34:18.777Z,16.90
2023-05-11T10:36:46.875Z,17.00
2023-05-11T10:39:13.613Z,16.90
2023-05-11T10:42:06.314Z,16.90
2023-05-11T10:44:40.662Z,16.80
2023-05-11T10:47:28.034Z,16.90
2023-05-11T10:50:07.739Z,16.90
2023-05-11T10:53:13.828Z,17.00
2023-05-11T10:56:10.234Z,16.90
2023-05-11T10:58:48.558Z,17.00
2023-05-11T11:01:31.480Z,17.10
2023-05-11T11:04:01.994Z,17.10
2023-05-11T11:06:29.759Z,17.20
2023-05-11T11:08:57.990Z,17.10
2023-05-11T11:11:39.296Z,17.10
2023-05-11T11:14:09.469Z,17.20
2023-05-11T11:16:37.851Z,17.30
2023-05-11T11:19:30.182Z,17.30
2023-05-11T11:22:00.349Z,17.20
2023-05-11T11:24:39.342Z,17.20
2023-05-11T11:27:07.359Z,17.30
2023-05-11T11:29:35.806Z,17.40
2023-05-11T11:32:21.472Z,17.40
2023-05-11T11:34:48.962Z,17.40
2023-05-11T11:37:17.327Z,17.30
2023-05-11T11:39:44.227Z,17.30
2023-05-11T11:42:13.066Z,17.30
2023-05-11T11:44:41.812Z,17.40
2023-05-11T11:47:22.376Z,17.40
2023-05-11T11:49:54.324Z,17.40
2023-05-11T11:52:27.060Z,17.40
2023-05-11T11:54:59.942Z,17.40
2023-05-11T11:57:36.074Z,17.40
2023-05-11T12:00:13.072Z,17.50
2023-05-11T12:02:44.383Z,17.50
2023-05-11T12:05:19.021Z,17.40
2023-05-11T12:07:48.814Z,17.40
2023-05-11T12:10:21.079Z,17.40
2023-05-11T12:12:49.283Z,17.40
2023-05-11T12:15:27.944Z,17.50
2023-05-11T12:17:55.749Z,17.50
2023-05-11T12:20:22.965Z,17.40
2023-05-11T12:22:50.556Z,17.40
2023-05-11T12:25:19.132Z,17.40
2023-05-11T12:28:03.296Z,17.40
2023-05-11T12:30:32.571Z,17.30
2023-05-11T12:33:00.380Z,17.30
2023-05-11T12:35:29.440Z,17.40
2023-05-11T12:37:57.684Z,17.50
2023-05-11T12:40:24.881Z,17.40
2023-05-11T12:42:56.858Z,17.40
2023-05-11T12:45:25.173Z,17.40
2023-05-11T12:47:54.461Z,17.50
2023-05-11T12:50:22.426Z,17.40
2023-05-11T12:52:50.341Z,17.40
2023-05-11T12:55:30.427Z,17.40
2023-05-11T12:58:12.789Z,17.40
2023-05-11T13:00:59.983Z,17.40
2023-05-11T13:03:32.742Z,17.40
2023-05-11T13:06:10.710Z,17.50
2023-05-11T13:08:39.573Z,17.50
2023-05-11T13:11:26.917Z,17.40
2023-05-11T13:13:55.790Z,17.50
2023-05-11T13:16:30.535Z,17.40
2023-05-11T13:19:02.637Z,17.40
2023-05-11T13:21:30.433Z,17.40
2023-05-11T13:23:57.411Z,17.30
2023-05-11T13:26:30.142Z,17.50
2023-05-11T13:29:09.391Z,17.50
2023-05-11T13:31:51.908Z,17.50
2023-05-11T13:34:19.990Z,17.60
2023-05-11T13:36:47.671Z,17.60
2023-05-11T13:39:14.668Z,17.60
2023-05-11T13:41:41.736Z,17.50
2023-05-11T13:44:08.658Z,17.60
2023-05-11T13:46:35.814Z,17.60
2023-05-11T13:49:04.806Z,17.50
2023-05-11T13:51:32.499Z,17.50
2023-05-11T13:54:00.910Z,17.50
2023-05-11T13:56:31.615Z,17.50
2023-05-11T13:59:00.091Z,17.40
2023-05-11T14:01:27.665Z,17.30
2023-05-11T14:03:55.768Z,17.30
2023-05-11T14:06:23.893Z,17.40
2023-05-11T14:08:51.099Z,17.40
2023-05-11T14:11:18.021Z,17.20
2023-05-11T14:13:45.084Z,17.10
2023-05-11T14:16:12.273Z,17.10
2023-05-11T14:18:39.377Z,17.10
2023-05-11T14:21:06.254Z,17.10
2023-05-11T14:23:33.063Z,17.00
2023-05-11T14:25:59.925Z,17.00
2023-05-11T14:28:27.095Z,17.10
2023-05-11T14:30:54.937Z,17.10
2023-05-11T14:33:22.055Z,17.30
2023-05-11T14:35:50.218Z,17.30
2023-05-11T14:38:17.572Z,17.30
2023-05-11T14:40:44.615Z,17.30
2023-05-11T14:43:11.419Z,17.30
2023-05-11T14:45:38.345Z,17.20
2023-05-11T14:48:05.634Z,17.10
2023-05-11T14:50:32.534Z,17.10
2023-05-11T14:52:59.410Z,17.00
2023-05-11T14:55:26.620Z,17.00
2023-05-11T14:57:53.903Z,17.00
2023-05-11T15:00:20.946Z,17.00
2023-05-11T15:02:48.049Z,17.00
2023-05-11T15:05:15.051Z,17.00
2023-05-11T15:07:41.992Z,16.90
2023-05-11T15:10:08.934Z,16.90
2023-05-11T15:12:35.963Z,16.90
2023-05-11T15:15:03.563Z,16.90
2023-05-11T15:17:30.912Z,16.90
2023-05-11T15:19:58.022Z,16.90
2023-05-11T15:22:24.906Z,16.90
2023-05-11T15:24:51.740Z,17.00
2023-05-11T15:27:31.592Z,16.90
2023-05-11T15:29:58.588Z,16.90
2023-05-11T15:32:25.520Z,16.90
2023-05-11T15:34:59.867Z,17.50
2023-05-11T15:37:27.456Z,16.80
2023-05-11T15:39:54.568Z,16.80
2023-05-11T15:42:21.405Z,16.70
2023-05-11T15:44:48.214Z,16.80
2023-05-11T15:47:15.035Z,16.80
2023-05-11T15:49:42.146Z,16.80
2023-05-11T15:52:09.062Z,16.80
2023-05-11T15:54:36.254Z,16.80
2023-05-11T15:57:03.158Z,16.80
2023-05-11T15:59:32.507Z,16.80
2023-05-11T16:01:59.657Z,16.80
2023-05-11T16:04:26.858Z,16.80
2023-05-11T16:06:53.822Z,16.80
2023-05-11T16:09:20.753Z,16.80
2023-05-11T16:11:47.686Z,16.80
2023-05-11T16:14:14.738Z,16.80
2023-05-11T16:16:41.779Z,16.80
2023-05-11T16:19:08.815Z,16.80
2023-05-11T16:21:35.669Z,16.70
2023-05-11T16:24:02.642Z,16.80
2023-05-11T16:26:30.957Z,16.80
2023-05-11T16:28:57.754Z,16.80
2023-05-11T16:31:24.508Z,16.90
2023-05-11T16:33:51.414Z,16.80
2023-05-11T16:36:18.232Z,16.80
2023-05-11T16:38:45.168Z,16.70
2023-05-11T16:41:12.101Z,16.80
2023-05-11T16:43:41.867Z,16.70
2023-05-11T16:46:09.560Z,16.60
2023-05-11T16:48:36.459Z,16.40
2023-05-11T16:51:04.272Z,16.30
2023-05-11T16:53:31.799Z,16.40
2023-05-11T16:55:58.626Z,16.30
2023-05-11T16:58:25.737Z,16.30
2023-05-11T17:00:52.815Z,16.20
2023-05-11T17:03:19.740Z,16.30
2023-05-11T17:05:46.717Z,16.20
2023-05-11T17:08:13.539Z,16.10
2023-05-11T17:10:40.865Z,16.00
2023-05-11T17:13:07.693Z,16.00
2023-05-11T17:15:34.937Z,15.80
2023-05-11T17:18:01.974Z,15.70
2023-05-11T17:20:28.962Z,15.80
2023-05-11T17:22:55.894Z,15.70
2023-05-11T17:25:22.718Z,15.60
2023-05-11T17:27:49.531Z,15.50
2023-05-11T17:30:17.695Z,15.60
2023-05-11T17:32:44.987Z,15.50
2023-05-11T17:35:12.134Z,15.60
2023-05-11T17:37:39.641Z,15.60
2023-05-11T17:40:07.457Z,15.60
2023-05-11T17:42:34.872Z,15.70
2023-05-11T17:45:02.171Z,15.60
2023-05-11T17:47:29.106Z,15.60
2023-05-11T17:49:56.454Z,15.60
2023-05-11T17:52:24.735Z,15.60
2023-05-11T17:54:51.789Z,15.80
2023-05-11T17:57:18.601Z,15.80
2023-05-11T17:59:47.582Z,15.80
2023-05-11T18:02:14.701Z,15.80
2023-05-11T18:04:42.099Z,15.80
2023-05-11T18:07:09.515Z,15.80
2023-05-11T18:09:36.520Z,15.90
2023-05-11T18:12:04.466Z,16.00
2023-05-11T18:14:31.359Z,15.90
2023-05-11T18:16:58.137Z,16.00
2023-05-11T18:19:25.221Z,16.00
2023-05-11T18:21:52.351Z,16.00
2023-05-11T18:24:19.432Z,16.00
2023-05-11T18:26:46.188Z,16.00
2023-05-11T18:29:13.563Z,15.90
2023-05-11T18:31:40.419Z,15.90
2023-05-11T18:34:07.470Z,15.90
2023-05-11T18:36:34.559Z,15.90
2023-05-11T18:39:01.422Z,16.00
2023-05-11T18:41:28.843Z,16.00
2023-05-11T18:43:58.792Z,16.00
2023-05-11T18:46:25.655Z,16.00
2023-05-11T18:48:55.143Z,16.00
2023-05-11T18:51:22.907Z,16.00
2023-05-11T18:53:50.269Z,16.00
2023-05-11T18:56:17.507Z,16.00
2023-05-11T18:58:45.073Z,16.10
2023-05-11T19:01:12.526Z,16.00
2023-05-11T19:03:39.679Z,15.90
2023-05-11T19:06:07.698Z,17.70
2023-05-11T19:08:34.708Z,16.00
2023-05-11T19:11:09.558Z,15.90
2023-05-11T19:13:37.053Z,15.90
2023-05-11T19:16:04.930Z,15.90
2023-05-11T19:18:35.383Z,15.90
2023-05-11T19:21:03.931Z,16.00
2023-05-11T19:23:31.796Z,15.90
2023-05-11T19:25:59.374Z,15.90
2023-05-11T19:28:26.312Z,15.90
2023-05-11T19:31:06.381Z,16.00
2023-05-11T19:33:33.551Z,15.90
2023-05-11T19:36:00.375Z,15.90
2023-05-11T19:38:27.485Z,16.40
2023-05-11T19:40:54.496Z,15.80
2023-05-11T19:43:22.904Z,15.80
2023-05-11T19:45:49.729Z,15.80
2023-05-11T19:48:17.134Z,15.80
2023-05-11T19:50:44.391Z,15.80
2023-05-11T19:53:11.232Z,15.80
2023-05-11T19:55:39.848Z,15.90
2023-05-11T19:58:07.082Z,15.80
2023-05-11T20:00:34.005Z,15.80
2023-05-11T20:03:01.204Z,15.90
2023-05-11T20:05:28.064Z,15.90
2023-05-11T20:07:54.886Z,15.90
2023-05-11T20:10:22.078Z,15.90
2023-05-11T20:12:48.946Z,15.90
2023-05-11T20:15:16.020Z,15.90
2023-05-11T20:17:43.167Z,15.90
2023-05-11T20:20:10.934Z,15.90
2023-05-11T20:22:38.277Z,15.90
2023-05-11T20:25:13.917Z,15.90
2023-05-11T20:27:44.737Z,16.00
2023-05-11T20:30:12.148Z,16.00
2023-05-11T20:32:38.976Z,16.00
2023-05-11T20:35:06.336Z,15.90
2023-05-11T20:37:33.267Z,15.90
2023-05-11T20:40:00.033Z,15.90
2023-05-11T20:42:27.270Z,15.90
2023-05-11T20:44:54.214Z,15.90
2023-05-11T20:47:21.008Z,15.90
2023-05-11T20:49:47.857Z,15.90
2023-05-11T20:52:14.655Z,15.90
2023-05-11T20:54:41.552Z,15.90
2023-05-11T20:57:08.447Z,15.90
2023-05-11T21:02:05.268Z,15.80
2023-05-11T21:04:32.153Z,15.80
2023-05-11T21:06:58.967Z,15.90
2023-05-11T21:09:25.853Z,15.90
2023-05-11T21:11:52.784Z,15.80
2023-05-11T21:14:20.217Z,15.90
2023-05-11T21:16:47.759Z,15.90
2023-05-11T21:19:16.505Z,15.80
2023-05-11T21:21:43.415Z,15.80
2023-05-11T21:24:10.308Z,15.90
2023-05-11T21:26:37.196Z,15.80
2023-05-11T21:29:03.987Z,15.80
2023-05-11T21:31:31.051Z,15.80
2023-05-11T21:33:57.894Z,15.80
2023-05-11T21:36:24.749Z,15.70
2023-05-11T21:38:51.543Z,15.70
2023-05-11T21:41:18.528Z,15.70
2023-05-11T21:43:45.487Z,15.70
2023-05-11T21:46:12.792Z,15.70
2023-05-11T21:48:39.705Z,15.70
2023-05-11T21:51:06.720Z,15.60
2023-05-11T21:53:33.508Z,15.60
2023-05-11T21:56:00.304Z,15.60
2023-05-11T21:58:27.551Z,15.60
2023-05-11T22:00:56.282Z,15.60
2023-05-11T22:03:23.185Z,15.70
2023-05-11T22:05:50.082Z,15.70
2023-05-11T22:08:16.847Z,15.70
2023-05-11T22:10:43.955Z,15.80
2023-05-11T22:13:10.888Z,15.80
2023-05-11T22:15:38.482Z,15.70
2023-05-11T22:18:05.591Z,15.70
2023-05-11T22:20:32.634Z,15.70
2023-05-11T22:22:59.648Z,15.70
2023-05-11T22:25:26.707Z,15.70
2023-05-11T22:27:53.736Z,15.80
2023-05-11T22:30:20.891Z,15.70
2023-05-11T22:32:47.992Z,15.70
2023-05-11T22:35:14.810Z,15.80
2023-05-11T22:37:41.638Z,15.80
2023-05-11T22:40:10.121Z,15.70
2023-05-11T22:42:38.217Z,15.70
2023-05-11T22:45:06.190Z,15.60
2023-05-11T22:47:33.199Z,15.60
2023-05-11T22:50:00.534Z,15.60
2023-05-11T22:52:27.537Z,15.50
2023-05-11T22:54:55.216Z,15.50
2023-05-11T22:57:24.059Z,15.50
2023-05-11T22:59:51.019Z,15.50
2023-05-11T23:02:17.974Z,15.50
2023-05-11T23:04:52.231Z,15.50
2023-05-11T23:07:19.688Z,15.60
2023-05-11T23:10:01.746Z,15.60
2023-05-11T23:12:28.577Z,15.60
2023-05-11T23:14:55.536Z,15.60
2023-05-11T23:17:22.349Z,15.60
2023-05-11T23:19:49.479Z,15.60
2023-05-11T23:22:16.228Z,15.70
2023-05-11T23:24:42.984Z,15.60
2023-05-11T23:27:09.758Z,15.60
2023-05-11T23:29:37.147Z,15.60
2023-05-11T23:32:04.339Z,15.60
2023-05-11T23:34:31.253Z,15.60
2023-05-11T23:36:58.049Z,15.60
2023-05-11T23:39:24.855Z,15.50
2023-05-11T23:41:52.149Z,15.50
2023-05-11T23:44:19.007Z,15.50
2023-05-11T23:46:45.884Z,15.50
2023-05-11T23:49:12.758Z,15.50
2023-05-11T23:51:39.795Z,15.50
2023-05-11T23:54:09.694Z,15.50
2023-05-11T23:56:36.524Z,15.60
2023-05-11T23:59:03.485Z,15.60
